Time;durP1;ratioP1;P1;durP2;ratioP2;P2;SDS_P1;SDS_P2;PMS_P1;PMS_P2;Temp;Humidity;BMP_temperature;BMP_pressure;BME280_temperature;BME280_humidity;BME280_pressure;Samples;Min_cycle;Max_cycle;Signal;HPM_P1;HPM_P2
2022/02/17 00:01:45;;;;;;;1.30;1.30;;;14.10;99.90;;;;;;5076790;28;20209;-55
2022/02/17 00:04:11;;;;;;;1.20;1.20;;;14.30;99.90;;;;;;5057049;28;20186;-53
2022/02/17 00:06:36;;;;;;;1.30;1.30;;;14.40;99.90;;;;;;5053298;28;20691;-58
2022/02/17 00:09:02;;;;;;;1.23;1.23;;;14.70;99.90;;;;;;5066240;28;20189;-57
2022/02/17 00:11:28;;;;;;;1.30;1.30;;;14.70;99.90;;;;;;5055621;28;20183;-56
2022/02/17 00:13:53;;;;;;;1.20;1.20;;;14.60;99.90;;;;;;5054110;28;20969;-54
2022/02/17 00:16:20;;;;;;;1.30;1.30;;;14.50;99.90;;;;;;5056897;28;20182;-59
2022/02/17 00:18:45;;;;;;;1.40;1.30;;;14.60;99.90;;;;;;5050666;28;20166;-55
2022/02/17 00:21:11;;;;;;;1.30;1.30;;;14.90;99.90;;;;;;5050379;28;20450;-57
2022/02/17 00:23:36;;;;;;;1.50;1.50;;;15.00;99.90;;;;;;5054846;28;20523;-57
2022/02/17 00:26:02;;;;;;;1.60;1.60;;;15.10;99.90;;;;;;5049798;28;20163;-59
2022/02/17 00:28:27;;;;;;;1.40;1.40;;;15.10;99.90;;;;;;5050699;28;20174;-57
2022/02/17 00:30:53;;;;;;;1.70;1.60;;;15.20;99.90;;;;;;5050855;28;20590;-55
2022/02/17 00:33:20;;;;;;;1.50;1.50;;;15.10;99.90;;;;;;5050660;28;20186;-59
2022/02/17 00:35:45;;;;;;;1.50;1.40;;;15.20;99.90;;;;;;5057625;28;20181;-60
2022/02/17 00:38:11;;;;;;;1.40;1.40;;;15.10;99.90;;;;;;5071342;28;20407;-60
2022/02/17 00:40:36;;;;;;;1.60;1.50;;;15.20;99.90;;;;;;5051414;28;20193;-60
2022/02/17 00:43:02;;;;;;;1.40;1.40;;;15.10;99.90;;;;;;5051447;28;20527;-56
2022/02/17 00:45:27;;;;;;;1.57;1.50;;;15.20;99.90;;;;;;5046922;28;20206;-58
2022/02/17 00:47:53;;;;;;;1.60;1.60;;;15.20;99.90;;;;;;5048923;28;20797;-60
2022/02/17 00:50:19;;;;;;;1.83;1.60;;;15.30;99.90;;;;;;5049237;28;20186;-59
2022/02/17 00:52:44;;;;;;;1.50;1.50;;;15.30;99.90;;;;;;5059577;28;20222;-59
2022/02/17 00:55:10;;;;;;;1.80;1.70;;;15.40;99.90;;;;;;5049398;28;20190;-56
2022/02/17 00:57:35;;;;;;;1.90;1.80;;;15.40;99.90;;;;;;5061251;28;20204;-59
2022/02/17 01:00:03;;;;;;;1.50;1.50;;;15.40;99.90;;;;;;5067004;28;20192;-57
2022/02/17 01:02:28;;;;;;;1.50;1.50;;;15.40;99.90;;;;;;5053768;28;20202;-59
2022/02/17 01:04:54;;;;;;;1.40;1.40;;;15.50;99.90;;;;;;5053703;28;20434;-61
2022/02/17 01:07:19;;;;;;;1.40;1.40;;;15.50;99.90;;;;;;5066215;28;20185;-60
2022/02/17 01:09:45;;;;;;;1.57;1.50;;;15.50;99.90;;;;;;5052881;28;20187;-59
2022/02/17 01:12:10;;;;;;;1.40;1.40;;;15.50;99.90;;;;;;5051576;28;20221;-59
2022/02/17 01:14:36;;;;;;;1.40;1.40;;;15.50;99.90;;;;;;5055845;28;20765;-59
2022/02/17 01:17:02;;;;;;;1.43;1.43;;;15.50;99.90;;;;;;5056366;28;21004;-60
2022/02/17 01:19:27;;;;;;;1.50;1.50;;;15.60;99.90;;;;;;5050322;28;20209;-58
2022/02/17 01:21:53;;;;;;;1.60;1.60;;;15.50;99.90;;;;;;5048368;28;20202;-58
2022/02/17 01:24:19;;;;;;;1.80;1.70;;;15.50;99.90;;;;;;5048584;28;20206;-59
2022/02/17 01:26:45;;;;;;;1.60;1.60;;;15.50;99.90;;;;;;5050223;28;20166;-59
2022/02/17 01:29:11;;;;;;;1.90;1.80;;;15.60;99.90;;;;;;5049147;28;20501;-58
2022/02/17 01:31:37;;;;;;;1.87;1.77;;;15.60;99.90;;;;;;5051255;28;20937;-58
2022/02/17 01:34:02;;;;;;;1.83;1.73;;;15.60;99.90;;;;;;5059422;28;20182;-60
2022/02/17 01:36:28;;;;;;;1.80;1.70;;;15.60;99.90;;;;;;5049059;28;20239;-60
2022/02/17 01:38:55;;;;;;;1.80;1.73;;;15.60;99.90;;;;;;5066639;28;20831;-59
2022/02/17 01:41:21;;;;;;;1.70;1.70;;;15.60;99.90;;;;;;5059832;28;20428;-60
2022/02/17 01:43:49;;;;;;;1.80;1.70;;;15.60;99.90;;;;;;5053783;28;20423;-57
2022/02/17 01:46:15;;;;;;;1.83;1.73;;;15.60;99.90;;;;;;5051921;28;20440;-54
2022/02/17 01:48:40;;;;;;;1.73;1.67;;;15.60;99.90;;;;;;5052841;28;20515;-59
2022/02/17 01:51:06;;;;;;;1.60;1.53;;;15.60;99.90;;;;;;5058290;28;20594;-58
2022/02/17 01:53:32;;;;;;;1.80;1.70;;;15.60;99.90;;;;;;5049544;28;20242;-53
2022/02/17 01:55:59;;;;;;;1.80;1.70;;;15.60;99.90;;;;;;5047717;28;20179;-59
2022/02/17 01:58:27;;;;;;;1.67;1.63;;;15.50;99.90;;;;;;5056985;28;20362;-55
2022/02/17 02:00:53;;;;;;;1.53;1.50;;;15.60;99.90;;;;;;5048839;28;20438;-60
2022/02/17 02:03:19;;;;;;;1.50;1.50;;;15.60;99.90;;;;;;5048988;28;21350;-55
2022/02/17 02:05:44;;;;;;;1.60;1.60;;;15.60;99.90;;;;;;5048325;28;20477;-54
2022/02/17 02:08:10;;;;;;;1.40;1.40;;;15.60;99.90;;;;;;5048888;28;20203;-60
2022/02/17 02:10:36;;;;;;;2.00;1.90;;;15.60;99.90;;;;;;5048033;28;20194;-59
2022/02/17 02:13:02;;;;;;;1.77;1.67;;;15.60;99.90;;;;;;5062533;28;20435;-60
2022/02/17 02:15:52;;;;;;;1.80;1.70;;;15.70;99.90;;;;;;5050683;28;20443;-58
2022/02/17 02:18:19;;;;;;;2.00;1.90;;;15.70;99.90;;;;;;5037611;28;20664;-55
2022/02/17 02:20:53;;;;;;;1.90;1.80;;;15.80;99.90;;;;;;5054316;28;20570;-60
2022/02/17 02:23:19;;;;;;;1.80;1.70;;;15.90;99.90;;;;;;5051471;28;20629;-55
2022/02/17 02:25:47;;;;;;;1.70;1.70;;;15.90;99.90;;;;;;5060406;28;20428;-57
2022/02/17 02:28:33;;;;;;;1.80;1.70;;;15.90;99.90;;;;;;5049048;28;20437;-58
2022/02/17 02:30:59;;;;;;;1.90;1.80;;;15.80;99.90;;;;;;5060818;28;20437;-54
2022/02/17 02:33:25;;;;;;;1.80;1.70;;;15.90;99.80;;;;;;5046924;28;20444;-59
2022/02/17 02:35:52;;;;;;;1.83;1.73;;;15.90;99.90;;;;;;5051430;28;20436;-58
2022/02/17 02:38:19;;;;;;;2.03;1.93;;;15.90;99.90;;;;;;5066129;28;20559;-61
2022/02/17 02:40:45;;;;;;;2.00;1.90;;;15.90;99.90;;;;;;5057547;28;20666;-49
2022/02/17 02:43:11;;;;;;;1.60;1.60;;;15.90;99.90;;;;;;5052304;28;21069;-59
2022/02/17 02:45:37;;;;;;;1.70;1.70;;;15.90;99.90;;;;;;5051512;28;20468;-58
2022/02/17 02:48:08;;;;;;;1.90;1.80;;;15.80;99.90;;;;;;5052143;28;20191;-59
2022/02/17 02:50:35;;;;;;;1.90;1.80;;;15.60;99.90;;;;;;5058485;28;20747;-57
2022/02/17 02:53:01;;;;;;;1.80;1.70;;;15.30;99.90;;;;;;5063579;28;20974;-60
2022/02/17 02:55:27;;;;;;;1.70;1.60;;;15.20;99.90;;;;;;5051279;28;20445;-57
2022/02/17 02:57:52;;;;;;;1.70;1.60;;;15.10;99.90;;;;;;5049804;28;20448;-52
2022/02/17 03:00:19;;;;;;;3.40;3.30;;;15.10;99.90;;;;;;5052754;28;20768;-57
2022/02/17 03:02:44;;;;;;;1.47;1.47;;;15.20;99.90;;;;;;5063399;28;20652;-51
2022/02/17 03:05:11;;;;;;;1.60;1.50;;;15.20;99.90;;;;;;5050835;28;20531;-56
2022/02/17 03:07:37;;;;;;;1.80;1.70;;;15.10;99.90;;;;;;5052458;28;20178;-55
2022/02/17 03:10:04;;;;;;;1.73;1.63;;;15.10;99.90;;;;;;5054695;28;20470;-59
2022/02/17 03:12:30;;;;;;;1.80;1.70;;;15.00;99.90;;;;;;5068491;28;20512;-58
2022/02/17 03:14:55;;;;;;;1.83;1.73;;;15.00;99.90;;;;;;5057440;28;20448;-58
2022/02/17 03:17:21;;;;;;;1.70;1.60;;;14.90;99.90;;;;;;5052389;28;20264;-58
2022/02/17 03:19:46;;;;;;;2.90;1.60;;;14.90;99.90;;;;;;5065451;28;20613;-58
2022/02/17 03:22:12;;;;;;;1.70;1.60;;;14.80;99.90;;;;;;5054366;28;20222;-59
2022/02/17 03:24:37;;;;;;;1.60;1.50;;;14.70;99.90;;;;;;5061587;28;20235;-58
2022/02/17 03:27:03;;;;;;;2.13;1.40;;;14.60;99.90;;;;;;5054290;28;21034;-57
2022/02/17 03:29:29;;;;;;;1.57;1.50;;;14.50;99.90;;;;;;5050411;28;20182;-56
2022/02/17 03:31:54;;;;;;;2.00;1.90;;;14.40;99.90;;;;;;5051419;28;20433;-62
2022/02/17 03:34:21;;;;;;;1.60;1.50;;;14.10;99.90;;;;;;5050725;28;20190;-63
2022/02/17 03:36:46;;;;;;;1.30;1.20;;;13.70;99.90;;;;;;5052126;28;20230;-63
2022/02/17 03:39:14;;;;;;;1.30;1.20;;;13.30;99.90;;;;;;5052183;28;20416;-64
2022/02/17 03:41:40;;;;;;;1.10;1.00;;;13.10;99.90;;;;;;5051843;28;20610;-62
2022/02/17 03:44:06;;;;;;;1.50;1.40;;;13.00;99.90;;;;;;5051313;28;20543;-63
2022/02/17 03:46:32;;;;;;;1.07;0.97;;;12.80;99.90;;;;;;5041007;28;20178;-64
2022/02/17 03:48:57;;;;;;;1.20;1.10;;;12.70;99.90;;;;;;5042333;28;20948;-64
2022/02/17 03:51:23;;;;;;;0.90;0.90;;;12.60;99.90;;;;;;5051472;28;20183;-65
2022/02/17 03:53:48;;;;;;;1.37;1.00;;;12.50;99.90;;;;;;5051479;28;20226;-63
2022/02/17 03:56:14;;;;;;;1.07;0.97;;;12.50;99.90;;;;;;5049657;28;20182;-62
2022/02/17 04:01:23;;;;;;;1.50;1.10;;;12.40;99.90;;;;;;5061853;28;20730;-60
2022/02/17 04:03:49;;;;;;;1.10;0.90;;;12.40;99.90;;;;;;5053765;28;20424;-62
2022/02/17 04:06:14;;;;;;;1.57;0.90;;;12.30;99.90;;;;;;5054166;28;20209;-62
2022/02/17 04:08:40;;;;;;;1.00;0.90;;;12.20;99.90;;;;;;5050441;28;20206;-59
2022/02/17 04:11:05;;;;;;;1.00;0.90;;;12.20;99.90;;;;;;5053105;28;20669;-61
2022/02/17 04:13:31;;;;;;;1.33;0.90;;;12.20;99.90;;;;;;5058832;28;20255;-61
2022/02/17 04:15:57;;;;;;;2.60;0.87;;;12.20;99.90;;;;;;5049463;28;20214;-57
2022/02/17 04:18:22;;;;;;;1.63;0.70;;;12.20;99.90;;;;;;5056385;28;20570;-60
2022/02/17 04:20:48;;;;;;;0.80;0.80;;;12.10;99.90;;;;;;5050363;28;20186;-60
2022/02/17 04:23:14;;;;;;;1.00;0.90;;;12.10;99.90;;;;;;5050469;28;20205;-61
2022/02/17 04:25:39;;;;;;;1.10;1.00;;;12.00;99.90;;;;;;5050718;28;20429;-60
2022/02/17 04:28:05;;;;;;;3.57;1.47;;;11.90;99.90;;;;;;5050647;28;20201;-60
2022/02/17 04:30:30;;;;;;;1.70;1.40;;;11.50;99.90;;;;;;5050786;28;20178;-60
2022/02/17 04:32:59;;;;;;;1.90;1.27;;;11.10;99.90;;;;;;5050021;28;20190;-62
2022/02/17 04:35:25;;;;;;;3.80;1.60;;;10.80;99.90;;;;;;5052974;28;20535;-62
2022/02/17 04:37:50;;;;;;;1.30;1.20;;;10.60;99.90;;;;;;5049980;28;20522;-62
2022/02/17 04:40:16;;;;;;;1.50;1.20;;;10.20;99.90;;;;;;5050361;28;20192;-61
2022/02/17 04:42:41;;;;;;;1.53;1.23;;;9.70;99.90;;;;;;5052322;28;20214;-63
2022/02/17 04:45:08;;;;;;;1.20;1.10;;;9.50;99.90;;;;;;5050023;28;20240;-62
2022/02/17 04:47:34;;;;;;;3.23;1.00;;;9.40;99.90;;;;;;5050559;28;20961;-62
2022/02/17 04:49:59;;;;;;;1.10;1.00;;;9.30;99.90;;;;;;5050490;28;20393;-61
2022/02/17 04:52:25;;;;;;;1.70;1.00;;;9.20;99.90;;;;;;5049796;28;20487;-61
2022/02/17 04:54:52;;;;;;;3.43;0.80;;;9.10;99.90;;;;;;5050390;28;20539;-62
2022/02/17 04:57:17;;;;;;;1.40;0.93;;;9.10;99.90;;;;;;5049107;28;20220;-62
2022/02/17 04:59:44;;;;;;;2.50;1.10;;;9.00;99.90;;;;;;5050528;28;20456;-60
2022/02/17 05:02:09;;;;;;;1.40;1.20;;;9.00;99.90;;;;;;5049463;28;20289;-61
2022/02/17 05:04:35;;;;;;;1.70;0.80;;;9.00;99.90;;;;;;5049976;28;20966;-62
2022/02/17 05:07:01;;;;;;;1.87;0.93;;;9.00;99.90;;;;;;5046725;28;20182;-60
2022/02/17 05:09:26;;;;;;;1.60;1.10;;;8.80;99.90;;;;;;5041445;28;20927;-60
2022/02/17 05:11:52;;;;;;;1.00;0.80;;;8.70;99.90;;;;;;5040336;28;20190;-60
2022/02/17 05:14:18;;;;;;;1.40;0.90;;;8.50;99.90;;;;;;5052504;28;20190;-55
2022/02/17 05:16:44;;;;;;;1.30;0.90;;;8.40;99.90;;;;;;5041917;28;20869;-61
2022/02/17 05:19:10;;;;;;;2.30;0.90;;;8.40;99.90;;;;;;5040311;28;20178;-61
2022/02/17 05:21:36;;;;;;;2.60;1.00;;;8.20;99.90;;;;;;5048992;28;20460;-61
2022/02/17 05:24:01;;;;;;;2.37;1.20;;;8.10;99.90;;;;;;5044254;28;20432;-61
2022/02/17 05:26:27;;;;;;;1.10;1.00;;;8.00;99.90;;;;;;5040326;28;20183;-62
2022/02/17 05:28:53;;;;;;;2.80;1.07;;;7.90;99.90;;;;;;5041859;28;20419;-61
2022/02/17 05:31:18;;;;;;;1.73;1.20;;;7.90;99.90;;;;;;5044492;28;20186;-61
2022/02/17 05:33:44;;;;;;;2.50;0.90;;;7.80;99.90;;;;;;5043248;28;20178;-61
2022/02/17 05:36:09;;;;;;;2.50;0.90;;;7.90;99.90;;;;;;5052289;28;20969;-61
2022/02/17 05:38:35;;;;;;;1.23;0.80;;;7.90;99.90;;;;;;5030936;28;20208;-62
2022/02/17 05:41:00;;;;;;;0.90;0.70;;;7.90;99.90;;;;;;5048385;28;20189;-61
2022/02/17 05:43:26;;;;;;;1.60;1.07;;;7.90;99.90;;;;;;5055161;28;20214;-61
2022/02/17 05:45:51;;;;;;;1.10;0.93;;;7.90;99.90;;;;;;5044523;28;20224;-61
2022/02/17 05:48:17;;;;;;;1.40;0.80;;;8.00;99.90;;;;;;5049655;28;20200;-60
2022/02/17 05:50:42;;;;;;;1.10;0.80;;;8.10;99.90;;;;;;5048180;28;20186;-61
2022/02/17 05:53:08;;;;;;;1.37;0.70;;;8.10;99.90;;;;;;5047352;28;20244;-63
2022/02/17 05:55:34;;;;;;;1.00;0.90;;;8.10;99.90;;;;;;5068646;28;20184;-61
2022/02/17 05:58:00;;;;;;;0.90;0.80;;;8.10;99.90;;;;;;5052202;28;20542;-62
2022/02/17 06:00:26;;;;;;;1.00;0.90;;;8.10;99.90;;;;;;5046248;28;20448;-62
2022/02/17 06:02:52;;;;;;;1.63;1.00;;;8.10;99.90;;;;;;5049349;28;20293;-61
2022/02/17 06:05:17;;;;;;;2.30;1.20;;;8.10;99.90;;;;;;5050187;28;20320;-61
2022/02/17 06:07:44;;;;;;;1.30;1.03;;;8.20;99.90;;;;;;5047544;28;21037;-61
2022/02/17 06:10:12;;;;;;;1.10;1.00;;;8.20;99.90;;;;;;5051192;28;20206;-60
2022/02/17 06:12:45;;;;;;;1.20;0.93;;;8.20;99.90;;;;;;5054179;28;20423;-61
2022/02/17 06:15:13;;;;;;;1.83;1.10;;;8.20;99.90;;;;;;5054154;28;20412;-60
2022/02/17 06:17:40;;;;;;;1.33;1.13;;;8.30;99.90;;;;;;5056743;28;20438;-61
2022/02/17 06:20:06;;;;;;;2.27;1.00;;;8.20;99.90;;;;;;5053738;28;20567;-52
2022/02/17 06:22:32;;;;;;;1.37;0.90;;;8.20;99.90;;;;;;5052600;28;20467;-62
2022/02/17 06:24:58;;;;;;;2.03;1.37;;;8.30;99.90;;;;;;5055819;28;20441;-62
2022/02/17 06:27:24;;;;;;;1.90;1.43;;;8.30;99.90;;;;;;5052930;28;20544;-61
2022/02/17 06:29:49;;;;;;;2.10;1.10;;;8.30;99.90;;;;;;5052711;28;20175;-61
2022/02/17 06:32:15;;;;;;;1.63;1.13;;;8.40;99.90;;;;;;5037634;28;20613;-61
2022/02/17 06:34:40;;;;;;;3.73;1.40;;;8.40;99.90;;;;;;5039597;28;20190;-61
2022/02/17 06:37:06;;;;;;;1.57;1.20;;;8.40;99.90;;;;;;5051415;28;20194;-60
2022/02/17 06:39:31;;;;;;;3.00;1.30;;;8.50;99.90;;;;;;5052060;28;20178;-61
2022/02/17 06:41:57;;;;;;;1.60;1.23;;;8.50;99.90;;;;;;5050645;28;20202;-61
2022/02/17 06:44:23;;;;;;;2.73;1.47;;;8.60;99.90;;;;;;5053132;28;20615;-61
2022/02/17 06:46:48;;;;;;;1.63;1.10;;;8.60;99.90;;;;;;5051305;28;20202;-61
2022/02/17 06:49:14;;;;;;;1.37;1.27;;;8.60;99.90;;;;;;5065722;28;20539;-56
2022/02/17 06:51:40;;;;;;;2.03;1.33;;;8.70;99.90;;;;;;5052823;28;20523;-62
2022/02/17 06:54:07;;;;;;;4.03;1.60;;;8.70;99.90;;;;;;5058462;28;20498;-59
2022/02/17 06:56:32;;;;;;;3.53;1.60;;;8.80;99.90;;;;;;5055990;28;20256;-60
2022/02/17 06:58:58;;;;;;;2.57;1.47;;;8.90;99.90;;;;;;5051668;28;20436;-59
2022/02/17 07:01:24;;;;;;;3.73;1.47;;;8.90;99.90;;;;;;5052890;28;20240;-60
2022/02/17 07:03:51;;;;;;;1.93;1.40;;;8.90;99.90;;;;;;5049175;28;20179;-56
2022/02/17 07:06:16;;;;;;;4.30;1.43;;;8.90;99.90;;;;;;5051450;28;20277;-60
2022/02/17 07:08:42;;;;;;;4.70;2.10;;;8.90;99.90;;;;;;5052735;28;20496;-60
2022/02/17 07:11:07;;;;;;;2.90;1.77;;;8.80;99.90;;;;;;5052765;28;20216;-59
2022/02/17 07:13:33;;;;;;;3.00;1.80;;;8.70;99.90;;;;;;5052492;28;20178;-58
2022/02/17 07:15:59;;;;;;;2.07;1.87;;;8.50;99.90;;;;;;5052697;28;20182;-61
2022/02/17 07:18:26;;;;;;;3.47;1.97;;;8.50;99.90;;;;;;5051574;28;20605;-59
2022/02/17 07:20:54;;;;;;;3.07;1.70;;;8.30;99.90;;;;;;5051852;28;20182;-57
2022/02/17 07:23:20;;;;;;;2.00;1.80;;;8.30;99.90;;;;;;5051247;28;20461;-60
2022/02/17 07:25:46;;;;;;;3.50;1.80;;;8.30;99.90;;;;;;5051138;28;20428;-58
2022/02/17 07:28:13;;;;;;;4.00;1.90;;;8.20;99.90;;;;;;5064585;28;20425;-59
2022/02/17 07:30:39;;;;;;;2.40;1.67;;;8.20;99.90;;;;;;5052680;28;20475;-57
2022/02/17 07:33:07;;;;;;;3.20;1.50;;;8.30;99.90;;;;;;5051519;28;20454;-58
2022/02/17 07:35:33;;;;;;;3.33;1.40;;;8.40;99.90;;;;;;5052132;28;20750;-56
2022/02/17 07:37:59;;;;;;;3.30;2.00;;;8.40;99.90;;;;;;5052036;28;20409;-57
2022/02/17 07:40:25;;;;;;;3.13;1.67;;;8.50;99.90;;;;;;5051230;28;20412;-57
2022/02/17 07:42:51;;;;;;;3.43;1.73;;;8.50;99.90;;;;;;5050513;28;20545;-57
2022/02/17 07:45:17;;;;;;;2.57;1.33;;;8.50;99.90;;;;;;5053057;28;20440;-56
2022/02/17 07:47:46;;;;;;;2.50;1.57;;;8.60;99.90;;;;;;5049023;28;20193;-57
2022/02/17 07:50:13;;;;;;;1.50;1.10;;;8.70;99.90;;;;;;5047871;28;20265;-57
2022/02/17 07:52:39;;;;;;;2.00;1.27;;;8.70;99.90;;;;;;5042450;28;20477;-58
2022/02/17 07:55:05;;;;;;;3.70;1.20;;;8.80;99.90;;;;;;5045783;28;20448;-58
2022/02/17 07:57:30;;;;;;;1.10;1.00;;;8.90;99.90;;;;;;5044395;28;20190;-53
2022/02/17 07:59:56;;;;;;;2.70;1.50;;;8.90;99.90;;;;;;5048086;28;20435;-54
2022/02/17 08:02:22;;;;;;;1.50;1.17;;;8.90;99.90;;;;;;5053284;28;20223;-54
2022/02/17 08:04:47;;;;;;;1.70;1.20;;;8.90;99.90;;;;;;5050939;28;20777;-57
2022/02/17 08:07:13;;;;;;;3.30;1.60;;;8.80;99.90;;;;;;5045474;28;20181;-61
2022/02/17 08:09:38;;;;;;;3.23;1.50;;;8.80;99.90;;;;;;5053956;28;20190;-54
2022/02/17 08:12:04;;;;;;;1.47;1.20;;;8.70;99.90;;;;;;5060320;28;20182;-56
2022/02/17 08:14:30;;;;;;;3.73;2.30;;;8.90;99.90;;;;;;5059609;28;20241;-55
2022/02/17 08:16:55;;;;;;;1.93;1.57;;;9.30;99.90;;;;;;5054207;28;20467;-54
2022/02/17 08:19:21;;;;;;;2.37;1.70;;;9.60;99.90;;;;;;5054794;28;20652;-56
2022/02/17 08:21:46;;;;;;;4.20;2.00;;;9.60;99.90;;;;;;5054488;28;20277;-59
2022/02/17 08:24:13;;;;;;;2.33;1.90;;;9.50;99.90;;;;;;5047677;28;20266;-56
2022/02/17 08:26:40;;;;;;;2.83;2.13;;;9.30;99.90;;;;;;5060539;28;20711;-57
2022/02/17 08:29:06;;;;;;;2.57;1.97;;;9.20;99.90;;;;;;5044264;28;20504;-57
2022/02/17 08:31:32;;;;;;;2.00;1.80;;;9.20;99.90;;;;;;5053963;28;20486;-58
2022/02/17 08:34:03;;;;;;;1.53;1.40;;;9.20;99.90;;;;;;5053155;28;20458;-59
2022/02/17 08:36:34;;;;;;;1.83;1.40;;;9.20;99.90;;;;;;5047280;28;20459;-55
2022/02/17 08:39:00;;;;;;;2.00;1.90;;;9.20;99.90;;;;;;5059493;28;21198;-56
2022/02/17 08:41:25;;;;;;;2.63;1.50;;;9.20;99.90;;;;;;5053589;28;20446;-53
2022/02/17 08:43:51;;;;;;;3.30;1.73;;;9.20;99.90;;;;;;5052791;28;20782;-57
2022/02/17 08:46:18;;;;;;;1.87;1.50;;;9.10;99.90;;;;;;5055306;28;20181;-55
2022/02/17 08:48:44;;;;;;;2.20;1.83;;;9.20;99.90;;;;;;5059909;28;20190;-53
2022/02/17 08:51:09;;;;;;;3.30;1.70;;;9.20;99.90;;;;;;5056346;28;20431;-54
2022/02/17 08:53:35;;;;;;;5.10;1.90;;;9.30;99.90;;;;;;5062767;28;20233;-56
2022/02/17 08:56:00;;;;;;;2.80;1.90;;;9.80;99.90;;;;;;5057609;28;20307;-57
2022/02/17 08:58:26;;;;;;;2.77;2.57;;;10.10;99.90;;;;;;5053282;28;20637;-57
2022/02/17 09:00:52;;;;;;;2.87;2.20;;;10.10;99.90;;;;;;5055891;28;20664;-57
2022/02/17 09:03:17;;;;;;;3.93;2.20;;;9.90;99.90;;;;;;5054446;28;20253;-60
2022/02/17 09:05:43;;;;;;;2.37;2.17;;;9.80;99.90;;;;;;5048820;28;20640;-57
2022/02/17 09:08:09;;;;;;;4.80;2.30;;;9.70;99.90;;;;;;5050532;28;20493;-57
2022/02/17 09:10:36;;;;;;;4.10;2.10;;;9.70;99.90;;;;;;5057648;28;20173;-59
2022/02/17 09:13:02;;;;;;;4.17;2.23;;;9.60;99.90;;;;;;5061529;28;20432;-54
2022/02/17 09:15:29;;;;;;;3.67;2.10;;;9.70;99.90;;;;;;5045265;28;20428;-57
2022/02/17 09:17:54;;;;;;;3.10;2.20;;;9.70;99.90;;;;;;5052182;28;20428;-57
2022/02/17 09:20:21;;;;;;;2.30;2.10;;;9.60;99.90;;;;;;5063299;28;20435;-54
2022/02/17 09:22:46;;;;;;;2.60;2.30;;;9.60;99.90;;;;;;5065022;28;20193;-55
2022/02/17 09:25:12;;;;;;;2.30;2.10;;;9.70;99.90;;;;;;5048973;28;20443;-54
2022/02/17 09:27:37;;;;;;;1.87;1.77;;;9.60;99.90;;;;;;5049043;28;20263;-56
2022/02/17 09:30:05;;;;;;;3.40;2.50;;;9.70;99.90;;;;;;5046463;28;20182;-56
2022/02/17 09:32:31;;;;;;;3.73;2.50;;;9.80;99.90;;;;;;5050691;28;20186;-56
2022/02/17 09:34:57;;;;;;;2.40;2.20;;;9.80;99.90;;;;;;5051433;28;20441;-54
2022/02/17 09:37:22;;;;;;;2.70;2.40;;;9.90;99.90;;;;;;5059763;28;20656;-55
2022/02/17 09:39:48;;;;;;;3.07;2.40;;;10.00;99.90;;;;;;5051687;28;20467;-52
2022/02/17 09:42:14;;;;;;;2.93;2.10;;;10.00;99.90;;;;;;5063368;28;20293;-58
2022/02/17 09:44:41;;;;;;;2.00;1.90;;;10.10;99.90;;;;;;5048799;28;20282;-54
2022/02/17 09:47:13;;;;;;;3.63;2.30;;;10.10;99.90;;;;;;5067587;28;20408;-52
2022/02/17 09:49:40;;;;;;;2.30;2.20;;;10.10;99.80;;;;;;5064805;28;20427;-52
2022/02/17 09:52:06;;;;;;;2.50;2.30;;;10.10;98.40;;;;;;5062317;28;20774;-52
2022/02/17 09:54:33;;;;;;;2.10;1.90;;;10.00;98.70;;;;;;5070321;28;20411;-57
2022/02/17 09:56:59;;;;;;;2.87;2.30;;;9.90;99.00;;;;;;5061819;28;20468;-56
2022/02/17 09:59:25;;;;;;;3.30;2.33;;;9.90;98.60;;;;;;5059776;28;20455;-55
2022/02/17 10:01:59;;;;;;;3.43;2.47;;;9.90;99.40;;;;;;5063903;28;21281;-56
2022/02/17 10:04:26;;;;;;;2.50;2.30;;;9.90;99.40;;;;;;5051184;28;20159;-55
2022/02/17 10:07:00;;;;;;;6.93;2.47;;;10.00;98.10;;;;;;5058005;28;20922;-56
2022/02/17 10:09:38;;;;;;;2.50;2.30;;;9.90;97.70;;;;;;5062360;28;20428;-55
2022/02/17 10:12:04;;;;;;;2.67;2.43;;;9.90;98.90;;;;;;5058026;28;20491;-56
2022/02/17 10:14:30;;;;;;;2.70;2.40;;;10.00;97.50;;;;;;5066144;28;20396;-54
2022/02/17 10:17:00;;;;;;;2.80;2.40;;;9.90;97.90;;;;;;5057226;28;20927;-55
2022/02/17 10:19:34;;;;;;;6.30;2.50;;;10.00;97.80;;;;;;5062939;28;20459;-56
2022/02/17 10:22:04;;;;;;;7.47;2.83;;;10.00;97.80;;;;;;5056177;28;20817;-58
2022/02/17 10:24:31;;;;;;;3.33;2.77;;;10.00;97.80;;;;;;5058442;28;20415;-56
2022/02/17 10:27:06;;;;;;;2.63;2.40;;;9.90;98.50;;;;;;5053449;28;20883;-57
2022/02/17 10:29:34;;;;;;;4.17;2.70;;;9.90;97.50;;;;;;5063797;28;21108;-57
2022/02/17 10:32:13;;;;;;;2.50;2.30;;;10.00;98.70;;;;;;5067409;28;20438;-56
2022/02/17 10:34:41;;;;;;;2.50;2.30;;;10.00;97.80;;;;;;5060099;28;20883;-58
2022/02/17 10:37:09;;;;;;;2.53;2.33;;;10.10;98.00;;;;;;5066874;28;20428;-55
2022/02/17 10:39:37;;;;;;;3.70;2.70;;;10.00;98.00;;;;;;5058388;28;20503;-55
2022/02/17 10:42:06;;;;;;;2.50;2.30;;;10.00;98.00;;;;;;5060299;28;20450;-57
2022/02/17 10:44:37;;;;;;;3.23;2.20;;;9.90;99.50;;;;;;5056347;28;20775;-54
2022/02/17 10:47:18;;;;;;;3.03;2.23;;;9.90;98.50;;;;;;5061664;28;20903;-55
2022/02/17 10:49:54;;;;;;;3.37;2.53;;;9.90;98.80;;;;;;5061940;28;20427;-58
2022/02/17 10:52:34;;;;;;;2.60;2.40;;;9.90;98.50;;;;;;5057563;28;20467;-56
2022/02/17 10:55:09;;;;;;;2.27;2.10;;;9.90;96.90;;;;;;5067347;28;20412;-53
2022/02/17 10:57:35;;;;;;;2.87;2.67;;;9.90;97.20;;;;;;5064466;28;20436;-53
2022/02/17 11:00:14;;;;;;;4.27;2.40;;;10.00;95.90;;;;;;5048991;28;20883;-55
2022/02/17 11:02:41;;;;;;;2.57;2.37;;;10.00;95.60;;;;;;5060072;28;20618;-54
2022/02/17 11:05:09;;;;;;;2.60;2.40;;;10.10;95.90;;;;;;5059800;28;20467;-55
2022/02/17 11:07:39;;;;;;;6.53;2.67;;;10.70;93.90;;;;;;5066676;28;20855;-55
2022/02/17 11:10:07;;;;;;;2.50;2.40;;;11.60;91.50;;;;;;5053161;28;20977;-55
2022/02/17 11:12:33;;;;;;;6.67;3.10;;;11.80;88.00;;;;;;5057299;28;20800;-55
2022/02/17 11:14:59;;;;;;;3.00;2.80;;;12.20;83.50;;;;;;5056652;28;20415;-54
2022/02/17 11:17:25;;;;;;;2.47;2.33;;;12.70;80.90;;;;;;5058875;28;20832;-55
2022/02/17 11:19:52;;;;;;;3.40;3.07;;;12.70;77.60;;;;;;5045419;28;20527;-55
2022/02/17 11:22:19;;;;;;;3.70;3.00;;;12.30;79.40;;;;;;5048896;28;20460;-56
2022/02/17 11:24:55;;;;;;;3.37;3.07;;;11.70;79.80;;;;;;5060310;28;20417;-57
2022/02/17 11:27:22;;;;;;;2.80;2.60;;;11.70;82.20;;;;;;5059713;28;20886;-54
2022/02/17 11:29:49;;;;;;;3.77;3.07;;;12.40;80.40;;;;;;5056484;28;21089;-56
2022/02/17 11:32:18;;;;;;;3.20;2.97;;;12.40;79.90;;;;;;5062874;28;20419;-54
2022/02/17 11:34:47;;;;;;;3.70;2.80;;;12.50;77.80;;;;;;5064363;28;20408;-58
2022/02/17 11:37:28;;;;;;;2.90;2.70;;;12.30;78.60;;;;;;5054006;28;20497;-54
2022/02/17 11:40:02;;;;;;;2.70;2.60;;;12.30;78.20;;;;;;5065084;28;20903;-53
2022/02/17 11:42:32;;;;;;;3.20;2.70;;;12.50;76.70;;;;;;5058202;28;20448;-54
2022/02/17 11:45:10;;;;;;;3.40;3.20;;;12.90;74.60;;;;;;5058706;28;20405;-52
2022/02/17 11:47:55;;;;;;;3.20;3.00;;;13.10;74.50;;;;;;5047270;28;20950;-56
2022/02/17 11:50:36;;;;;;;3.30;3.03;;;13.40;71.90;;;;;;5041869;28;20502;-55
2022/02/17 11:53:35;;;;;;;3.27;3.07;;;13.50;71.80;;;;;;5037652;28;20472;-55
2022/02/17 11:56:06;;;;;;;3.23;2.50;;;13.60;69.00;;;;;;5039478;28;20429;-59
2022/02/17 11:58:41;;;;;;;3.40;2.90;;;13.80;68.10;;;;;;5039437;28;20488;-54
2022/02/17 12:01:22;;;;;;;4.37;3.10;;;13.20;68.70;;;;;;5039949;28;20460;-51
2022/02/17 12:03:58;;;;;;;3.60;3.17;;;12.30;72.00;;;;;;5041594;28;20928;-54
2022/02/17 12:06:38;;;;;;;8.17;3.00;;;12.00;73.60;;;;;;5040057;28;20420;-47
2022/02/17 12:09:04;;;;;;;3.20;3.00;;;12.30;72.70;;;;;;5038082;28;20408;-56
2022/02/17 12:11:37;;;;;;;3.47;3.17;;;13.00;72.40;;;;;;5040735;28;20436;-53
2022/02/17 12:14:08;;;;;;;3.40;2.90;;;13.30;69.20;;;;;;5039223;28;20401;-55
2022/02/17 12:16:43;;;;;;;4.67;3.20;;;12.90;69.60;;;;;;5037752;28;20425;-53
2022/02/17 12:19:14;;;;;;;3.70;3.00;;;12.50;69.40;;;;;;5036124;28;20405;-55
2022/02/17 12:21:41;;;;;;;3.20;2.87;;;12.40;70.00;;;;;;5044747;28;20405;-55
2022/02/17 12:24:08;;;;;;;2.80;2.60;;;12.30;70.20;;;;;;5043001;28;20431;-55
2022/02/17 12:26:41;;;;;;;4.80;3.00;;;12.00;70.30;;;;;;5038032;28;20531;-52
2022/02/17 12:29:29;;;;;;;3.70;3.17;;;12.30;68.20;;;;;;5032147;28;20416;-56
2022/02/17 12:31:56;;;;;;;3.57;3.27;;;12.80;67.90;;;;;;5036128;28;20779;-58
2022/02/17 12:34:22;;;;;;;5.40;3.60;;;12.70;69.20;;;;;;5042655;28;20764;-54
2022/02/17 12:36:48;;;;;;;7.43;3.20;;;12.20;70.90;;;;;;5041840;28;20425;-53
2022/02/17 12:39:14;;;;;;;3.03;2.80;;;12.10;73.00;;;;;;5032376;28;20236;-53
2022/02/17 12:42:14;;;;;;;3.80;3.37;;;11.90;76.20;;;;;;5031825;28;20907;-53
2022/02/17 12:44:41;;;;;;;4.33;3.27;;;12.50;74.80;;;;;;5040941;28;20440;-56
2022/02/17 12:47:08;;;;;;;4.23;3.50;;;12.60;73.40;;;;;;5049354;28;20413;-55
2022/02/17 12:49:35;;;;;;;5.37;4.00;;;12.50;72.70;;;;;;5065862;28;20415;-55
2022/02/17 12:52:10;;;;;;;4.10;3.53;;;12.60;74.00;;;;;;5069271;28;20420;-50
2022/02/17 12:54:37;;;;;;;3.60;3.40;;;13.00;70.50;;;;;;5053471;28;20427;-53